createdAt,value
2018-10-12T00:00:17.921Z,24.61
2018-10-12T00:01:17.940Z,24.49
2018-10-12T00:02:17.915Z,24.49
2018-10-12T00:03:17.066Z,24.49
2018-10-12T00:04:17.419Z,24.50
2018-10-12T00:05:17.947Z,24.55
2018-10-12T00:06:17.913Z,24.49
2018-10-12T00:07:17.009Z,24.49
2018-10-12T00:08:17.991Z,24.47
2018-10-12T00:09:17.458Z,24.52
2018-10-12T00:10:17.008Z,24.47
2018-10-12T00:11:16.966Z,24.47
2018-10-12T00:12:17.927Z,24.52
2018-10-12T00:13:16.942Z,24.52
2018-10-12T00:14:17.096Z,24.53
2018-10-12T00:15:17.981Z,24.47
2018-10-12T00:16:17.417Z,24.53
2018-10-12T00:17:16.920Z,24.49
2018-10-12T00:18:17.418Z,24.52
2018-10-12T00:19:17.048Z,24.47
2018-10-12T00:20:17.422Z,24.53
2018-10-12T00:21:16.866Z,24.50
2018-10-12T00:22:16.854Z,24.49
2018-10-12T00:23:17.454Z,24.46
2018-10-12T00:24:16.985Z,24.57
2018-10-12T00:25:17.429Z,24.49
2018-10-12T00:26:17.408Z,24.57
2018-10-12T00:27:16.800Z,24.53
2018-10-12T00:28:17.404Z,24.43
2018-10-12T00:29:16.946Z,24.47
2018-10-12T00:30:17.410Z,24.50
2018-10-12T00:31:17.451Z,24.42
2018-10-12T00:32:16.745Z,24.46
2018-10-12T00:33:16.731Z,24.42
2018-10-12T00:34:16.941Z,24.46
2018-10-12T00:35:16.739Z,24.43
2018-10-12T00:36:16.696Z,24.46
2018-10-12T00:37:17.434Z,24.52
2018-10-12T00:38:16.708Z,24.43
2018-10-12T00:39:16.894Z,24.49
2018-10-12T00:40:16.661Z,24.46
2018-10-12T00:41:17.427Z,24.43
2018-10-12T00:42:16.642Z,24.42
2018-10-12T00:43:16.617Z,24.43
2018-10-12T00:44:16.785Z,24.45
2018-10-12T00:45:16.597Z,24.49
2018-10-12T00:46:17.411Z,24.47
2018-10-12T00:47:17.414Z,24.50
2018-10-12T00:48:16.570Z,24.47
2018-10-12T00:49:16.754Z,24.49
2018-10-12T00:50:16.573Z,24.42
2018-10-12T00:51:16.534Z,24.47
2018-10-12T00:52:17.411Z,24.45
2018-10-12T00:53:16.520Z,24.43
2018-10-12T00:54:16.932Z,24.46
2018-10-12T00:55:17.448Z,24.49
2018-10-12T00:56:17.425Z,24.43
2018-10-12T00:57:16.464Z,24.50
2018-10-12T00:58:16.463Z,24.49
2018-10-12T00:59:16.922Z,24.45
2018-10-12T01:00:16.465Z,24.42
2018-10-12T01:01:16.436Z,24.43
2018-10-12T01:02:17.413Z,24.50
2018-10-12T01:03:16.908Z,24.55
2018-10-12T01:04:16.927Z,24.45
2018-10-12T01:05:16.386Z,24.49
2018-10-12T01:06:16.382Z,24.47
2018-10-12T01:07:16.358Z,24.46
2018-10-12T01:08:16.917Z,24.42
2018-10-12T01:09:16.922Z,24.50
2018-10-12T01:10:16.326Z,24.50
2018-10-12T01:11:16.946Z,24.42
2018-10-12T01:12:16.402Z,24.45
2018-10-12T01:13:16.918Z,24.45
2018-10-12T01:14:16.422Z,24.50
2018-10-12T01:15:16.281Z,24.50
2018-10-12T01:16:16.927Z,24.49
2018-10-12T01:17:16.911Z,24.49
2018-10-12T01:18:16.269Z,24.49
2018-10-12T01:19:16.236Z,24.45
2018-10-12T01:20:16.353Z,24.42
2018-10-12T01:21:16.216Z,24.45
2018-10-12T01:22:16.199Z,24.42
2018-10-12T01:23:16.188Z,24.47
2018-10-12T01:24:16.188Z,24.50
2018-10-12T01:25:16.326Z,24.42
2018-10-12T01:26:16.912Z,24.43
2018-10-12T01:27:16.149Z,24.49
2018-10-12T01:28:16.146Z,24.43
2018-10-12T01:29:16.926Z,24.45
2018-10-12T01:30:16.423Z,24.45
2018-10-12T01:31:16.943Z,24.40
2018-10-12T01:32:16.105Z,24.47
2018-10-12T01:33:16.090Z,24.45
2018-10-12T01:34:16.112Z,24.43
2018-10-12T01:35:16.429Z,24.43
2018-10-12T01:36:16.075Z,24.40
2018-10-12T01:37:16.073Z,24.42
2018-10-12T01:38:16.953Z,24.43
2018-10-12T01:39:16.962Z,24.40
2018-10-12T01:40:16.405Z,24.42
2018-10-12T01:41:16.926Z,24.43
2018-10-12T01:42:16.082Z,24.45
2018-10-12T01:43:16.911Z,24.40
2018-10-12T01:44:15.983Z,24.47
2018-10-12T01:45:16.185Z,24.43
2018-10-12T01:46:15.984Z,24.45
2018-10-12T01:47:15.935Z,24.43
2018-10-12T01:48:15.917Z,24.35
2018-10-12T01:49:15.910Z,24.43
2018-10-12T01:50:16.029Z,24.42
2018-10-12T01:51:16.428Z,24.45
2018-10-12T01:52:15.889Z,24.35
2018-10-12T01:53:15.870Z,24.42
2018-10-12T01:54:15.853Z,24.45
2018-10-12T01:55:16.429Z,24.37
2018-10-12T01:56:15.851Z,24.46
2018-10-12T01:57:16.410Z,24.45
2018-10-12T01:58:15.840Z,24.45
2018-10-12T01:59:16.412Z,24.42
2018-10-12T02:00:15.927Z,24.40
2018-10-12T02:01:15.784Z,24.32
2018-10-12T02:02:16.415Z,24.32
2018-10-12T02:03:15.776Z,24.39
2018-10-12T02:04:15.746Z,24.43
2018-10-12T02:05:15.937Z,24.35
2018-10-12T02:06:16.416Z,24.43
2018-10-12T02:07:16.477Z,24.32
2018-10-12T02:08:15.719Z,24.37
2018-10-12T02:09:16.473Z,24.46
2018-10-12T02:10:15.942Z,24.46
2018-10-12T02:11:16.431Z,24.40
2018-10-12T02:12:15.695Z,24.34
2018-10-12T02:13:16.413Z,24.40
2018-10-12T02:14:15.656Z,24.34
2018-10-12T02:15:16.037Z,24.40
2018-10-12T02:16:15.667Z,24.40
2018-10-12T02:17:16.473Z,24.39
2018-10-12T02:18:15.614Z,24.37
2018-10-12T02:19:16.427Z,24.43
2018-10-12T02:20:15.699Z,24.31
2018-10-12T02:21:15.580Z,24.42
2018-10-12T02:22:16.426Z,24.37
2018-10-12T02:23:15.541Z,24.35
2018-10-12T02:24:15.537Z,24.39
2018-10-12T02:25:15.653Z,24.35
2018-10-12T02:26:16.435Z,24.42
2018-10-12T02:27:15.517Z,24.39
2018-10-12T02:28:15.517Z,24.42
2018-10-12T02:29:16.453Z,24.35
2018-10-12T02:30:15.643Z,24.35
2018-10-12T02:31:16.437Z,24.34
2018-10-12T02:32:16.471Z,24.37
2018-10-12T02:33:15.446Z,24.35
2018-10-12T02:34:15.427Z,24.40
2018-10-12T02:35:15.544Z,24.37
2018-10-12T02:36:15.437Z,24.47
2018-10-12T02:37:15.429Z,24.39
2018-10-12T02:38:15.400Z,24.35
2018-10-12T02:39:15.453Z,24.32
2018-10-12T02:40:15.555Z,24.37
2018-10-12T02:41:15.373Z,24.34
2018-10-12T02:42:15.410Z,24.40
2018-10-12T02:43:15.394Z,24.34
2018-10-12T02:44:15.354Z,24.37
2018-10-12T02:45:15.585Z,24.34
2018-10-12T02:46:15.299Z,24.34
2018-10-12T02:47:15.327Z,24.31
2018-10-12T02:48:15.280Z,24.35
2018-10-12T02:49:15.278Z,24.32
2018-10-12T02:50:15.423Z,24.35
2018-10-12T02:51:15.245Z,24.30
2018-10-12T02:52:15.280Z,24.37
2018-10-12T02:53:15.225Z,24.40
2018-10-12T02:54:15.228Z,24.34
2018-10-12T02:55:15.227Z,24.35
2018-10-12T02:56:15.338Z,24.34
2018-10-12T02:57:15.233Z,24.35
2018-10-12T02:58:15.241Z,24.31
2018-10-12T02:59:15.185Z,24.45
2018-10-12T03:00:15.205Z,24.39
2018-10-12T03:01:15.284Z,24.34
2018-10-12T03:02:15.142Z,24.34
2018-10-12T03:03:15.121Z,24.39
2018-10-12T03:04:15.107Z,24.42
2018-10-12T03:05:15.141Z,24.39
2018-10-12T03:06:15.914Z,24.37
2018-10-12T03:07:15.072Z,24.40
2018-10-12T03:08:16.021Z,24.34
2018-10-12T03:09:15.056Z,24.42
2018-10-12T03:10:15.151Z,24.42
2018-10-12T03:11:15.637Z,24.34
2018-10-12T03:12:15.049Z,24.35
2018-10-12T03:13:15.083Z,24.35
2018-10-12T03:14:15.067Z,24.35
2018-10-12T03:15:15.950Z,24.43
2018-10-12T03:16:15.503Z,24.35
2018-10-12T03:17:14.966Z,24.40
2018-10-12T03:18:15.016Z,24.32
2018-10-12T03:19:14.962Z,24.43
2018-10-12T03:20:14.959Z,24.37
2018-10-12T03:21:15.049Z,24.32
2018-10-12T03:22:14.929Z,24.30
2018-10-12T03:23:14.941Z,24.35
2018-10-12T03:24:14.896Z,24.39
2018-10-12T03:25:14.883Z,24.32
2018-10-12T03:26:15.014Z,24.35
2018-10-12T03:27:14.878Z,24.34
2018-10-12T03:28:14.868Z,24.39
2018-10-12T03:29:14.866Z,24.39
2018-10-12T03:30:14.833Z,24.31
2018-10-12T03:31:15.100Z,24.40
2018-10-12T03:32:14.807Z,24.35
2018-10-12T03:33:14.802Z,24.37
2018-10-12T03:34:14.792Z,24.39
2018-10-12T03:35:14.795Z,24.30
2018-10-12T03:36:14.921Z,24.40
2018-10-12T03:37:14.779Z,24.32
2018-10-12T03:38:14.761Z,24.31
2018-10-12T03:39:14.731Z,24.34
2018-10-12T03:40:14.723Z,24.32
2018-10-12T03:41:14.831Z,24.32
2018-10-12T03:42:14.743Z,24.40
2018-10-12T03:43:14.704Z,24.31
2018-10-12T03:44:14.679Z,24.43
2018-10-12T03:45:14.669Z,24.34
2018-10-12T03:46:14.885Z,24.31
2018-10-12T03:47:14.641Z,24.37
2018-10-12T03:48:14.662Z,24.37
2018-10-12T03:49:14.633Z,24.42
2018-10-12T03:50:14.624Z,24.34
2018-10-12T03:51:14.767Z,24.40
2018-10-12T03:52:14.603Z,24.35
2018-10-12T03:53:14.577Z,24.21
2018-10-12T03:54:14.570Z,24.43
2018-10-12T03:55:15.424Z,24.35
2018-10-12T03:56:14.982Z,24.35
2018-10-12T03:57:15.544Z,24.39
2018-10-12T03:58:15.488Z,24.43
2018-10-12T03:59:15.453Z,24.32
2018-10-12T04:00:14.526Z,24.24
2018-10-12T04:01:14.663Z,24.37
2018-10-12T04:02:14.493Z,24.43
2018-10-12T04:03:14.477Z,24.40
2018-10-12T04:04:14.463Z,24.37
2018-10-12T04:05:14.460Z,24.28
2018-10-12T04:06:14.591Z,24.34
2018-10-12T04:07:14.437Z,24.39
2018-10-12T04:08:14.436Z,24.37
2018-10-12T04:09:14.413Z,24.34
2018-10-12T04:10:14.400Z,24.30
2018-10-12T04:11:14.545Z,24.40
2018-10-12T04:12:14.385Z,24.31
2018-10-12T04:13:14.386Z,24.28
2018-10-12T04:14:14.358Z,24.37
2018-10-12T04:15:14.348Z,24.32
2018-10-12T04:16:14.494Z,24.34
2018-10-12T04:17:14.340Z,24.31
2018-10-12T04:18:14.314Z,24.35
2018-10-12T04:19:14.311Z,24.30
2018-10-12T04:20:14.292Z,24.28
2018-10-12T04:21:14.411Z,24.32
2018-10-12T04:22:14.288Z,24.35
2018-10-12T04:23:14.286Z,24.31
2018-10-12T04:24:14.285Z,24.31
2018-10-12T04:25:14.247Z,24.30
2018-10-12T04:26:14.520Z,24.40
2018-10-12T04:27:14.258Z,24.32
2018-10-12T04:28:14.222Z,24.30
2018-10-12T04:29:14.247Z,24.31
2018-10-12T04:30:14.185Z,24.28
2018-10-12T04:31:14.209Z,24.28
2018-10-12T04:32:14.305Z,24.22
2018-10-12T04:33:14.158Z,24.35
2018-10-12T04:34:14.182Z,24.31
2018-10-12T04:35:14.161Z,24.37
2018-10-12T04:36:14.126Z,24.35
2018-10-12T04:37:14.250Z,24.27
2018-10-12T04:38:14.099Z,24.31
2018-10-12T04:39:14.090Z,24.31
2018-10-12T04:40:14.077Z,24.25
2018-10-12T04:41:14.102Z,24.27
2018-10-12T04:42:14.184Z,24.34
2018-10-12T04:43:14.045Z,24.39
2018-10-12T04:44:14.037Z,24.37
2018-10-12T04:45:14.075Z,24.28
2018-10-12T04:46:14.014Z,24.35
2018-10-12T04:47:14.220Z,24.28
2018-10-12T04:48:14.000Z,24.25
2018-10-12T04:49:14.011Z,24.34
2018-10-12T04:50:13.972Z,24.30
2018-10-12T04:51:13.960Z,24.34
2018-10-12T04:52:14.140Z,24.25
2018-10-12T04:53:13.945Z,24.31
2018-10-12T04:54:13.931Z,24.31
2018-10-12T04:55:13.960Z,24.39
2018-10-12T04:56:13.905Z,24.34
2018-10-12T04:57:14.308Z,24.31
2018-10-12T04:58:13.895Z,24.30
2018-10-12T04:59:13.886Z,24.31
2018-10-12T05:00:14.085Z,24.28
2018-10-12T05:01:13.881Z,24.35
2018-10-12T05:02:13.971Z,24.25
2018-10-12T05:03:13.842Z,24.30
2018-10-12T05:04:13.825Z,24.32
2018-10-12T05:05:13.817Z,24.37
2018-10-12T05:06:13.795Z,24.37
2018-10-12T05:07:13.947Z,24.30
2018-10-12T05:08:14.427Z,24.35
2018-10-12T05:09:13.769Z,24.30
2018-10-12T05:10:14.429Z,24.40
2018-10-12T05:11:13.750Z,24.31
2018-10-12T05:12:13.975Z,24.30
2018-10-12T05:13:14.428Z,24.32
2018-10-12T05:14:13.711Z,24.34
2018-10-12T05:15:14.441Z,24.34
2018-10-12T05:16:14.434Z,24.28
2018-10-12T05:17:14.108Z,24.32
2018-10-12T05:18:13.672Z,24.27
2018-10-12T05:19:13.660Z,24.37
2018-10-12T05:20:13.655Z,24.32
2018-10-12T05:21:13.670Z,24.34
2018-10-12T05:22:14.170Z,24.34
2018-10-12T05:23:13.659Z,24.28
2018-10-12T05:24:13.612Z,24.32
2018-10-12T05:25:14.455Z,24.34
2018-10-12T05:26:14.443Z,24.28
2018-10-12T05:27:13.705Z,24.37
2018-10-12T05:28:13.570Z,24.22
2018-10-12T05:29:13.550Z,24.31
2018-10-12T05:30:13.654Z,24.31
2018-10-12T05:31:13.538Z,24.22
2018-10-12T05:32:13.642Z,24.31
2018-10-12T05:33:13.507Z,24.28
2018-10-12T05:34:14.445Z,24.34
2018-10-12T05:35:14.452Z,24.25
2018-10-12T05:36:14.603Z,24.34
2018-10-12T05:37:14.086Z,24.32
2018-10-12T05:38:13.452Z,24.31
2018-10-12T05:39:13.480Z,24.25
2018-10-12T05:40:13.437Z,24.27
2018-10-12T05:41:13.419Z,24.32
2018-10-12T05:42:13.441Z,24.34
2018-10-12T05:43:13.578Z,24.25
2018-10-12T05:44:13.941Z,24.28
2018-10-12T05:45:13.931Z,24.32
2018-10-12T05:46:13.381Z,24.34
2018-10-12T05:47:13.375Z,24.32
2018-10-12T05:48:13.492Z,24.32
2018-10-12T05:49:13.338Z,24.28
2018-10-12T05:50:13.339Z,24.34
2018-10-12T05:51:13.323Z,24.32
2018-10-12T05:52:13.304Z,24.28
2018-10-12T05:57:13.045Z,24.32
2018-10-12T05:58:13.582Z,24.34
2018-10-12T05:59:13.967Z,24.34
2018-10-12T06:00:13.444Z,24.25
2018-10-12T06:01:13.521Z,24.34
2018-10-12T06:02:13.968Z,24.27
2018-10-12T06:03:13.984Z,24.31
2018-10-12T06:04:13.396Z,24.31
2018-10-12T06:05:13.407Z,24.31
2018-10-12T06:06:13.981Z,24.32
2018-10-12T06:07:13.970Z,24.31
2018-10-12T06:08:13.508Z,24.32
2018-10-12T06:09:13.978Z,24.32
2018-10-12T06:10:13.341Z,24.35
2018-10-12T06:11:14.028Z,24.24
2018-10-12T06:12:14.000Z,24.25
2018-10-12T06:13:13.452Z,24.31
2018-10-12T06:14:13.984Z,24.32
2018-10-12T06:15:13.275Z,24.35
2018-10-12T06:16:13.989Z,24.35
2018-10-12T06:17:13.273Z,24.25
2018-10-12T06:18:13.481Z,24.35
2018-10-12T06:19:13.970Z,24.31
2018-10-12T06:20:13.974Z,24.25
2018-10-12T06:21:13.984Z,24.34
2018-10-12T06:22:14.016Z,24.32
2018-10-12T06:23:13.504Z,24.27
2018-10-12T06:24:13.259Z,24.35
2018-10-12T06:25:13.970Z,24.35
2018-10-12T06:26:13.163Z,24.32
2018-10-12T06:27:14.003Z,24.35
2018-10-12T06:28:13.484Z,24.32
2018-10-12T06:29:13.177Z,24.40
2018-10-12T06:30:13.969Z,24.32
2018-10-12T06:31:13.975Z,24.35
2018-10-12T06:32:13.987Z,24.35
2018-10-12T06:33:13.562Z,24.45
2018-10-12T06:34:14.047Z,24.35
2018-10-12T06:35:13.986Z,24.35
2018-10-12T06:36:13.058Z,24.39
2018-10-12T06:37:13.980Z,24.37
2018-10-12T06:38:14.108Z,24.34
2018-10-12T06:39:13.975Z,24.42
2018-10-12T06:40:13.202Z,24.39
2018-10-12T06:41:13.045Z,24.40
2018-10-12T06:42:13.981Z,24.39
2018-10-12T06:43:13.491Z,24.40
2018-10-12T06:44:13.483Z,24.45
2018-10-12T06:45:13.492Z,24.46
2018-10-12T06:46:13.661Z,24.42
2018-10-12T06:47:13.482Z,24.43
2018-10-12T06:48:13.069Z,24.45
2018-10-12T06:49:12.917Z,24.43
2018-10-12T06:50:12.893Z,24.49
2018-10-12T06:51:12.894Z,24.46
2018-10-12T06:52:12.883Z,24.46
2018-10-12T06:53:13.100Z,24.53
2018-10-12T06:54:12.980Z,24.55
2018-10-12T06:55:13.479Z,24.52
2018-10-12T06:56:13.476Z,24.52
2018-10-12T06:57:13.548Z,24.55
2018-10-12T06:58:12.932Z,24.55
2018-10-12T06:59:13.482Z,24.53
2018-10-12T07:00:13.490Z,24.65
2018-10-12T07:01:13.473Z,24.71
2018-10-12T07:02:12.809Z,24.81
2018-10-12T07:03:12.916Z,24.87
2018-10-12T07:04:12.759Z,24.91
2018-10-12T07:05:13.470Z,25.03
2018-10-12T07:06:13.475Z,25.10
2018-10-12T07:07:13.481Z,25.10
2018-10-12T07:08:13.626Z,25.14
2018-10-12T07:09:13.484Z,25.14
2018-10-12T07:10:13.478Z,25.25
2018-10-12T07:11:12.862Z,25.30
2018-10-12T07:12:12.660Z,25.28
2018-10-12T07:13:13.630Z,25.32
2018-10-12T07:14:13.493Z,25.39
2018-10-12T07:15:13.493Z,25.39
2018-10-12T07:16:13.483Z,25.43
2018-10-12T07:17:12.642Z,25.47
2018-10-12T07:18:12.594Z,25.46
2018-10-12T07:19:13.610Z,25.46
2018-10-12T07:20:13.584Z,25.42
2018-10-12T07:21:13.532Z,25.39
2018-10-12T07:22:12.665Z,25.43
2018-10-12T07:23:12.564Z,25.39
2018-10-12T07:24:13.769Z,25.42
2018-10-12T07:25:12.516Z,25.36
2018-10-12T07:26:13.483Z,25.43
2018-10-12T07:27:13.481Z,25.47
2018-10-12T07:28:13.605Z,25.39
2018-10-12T07:29:13.102Z,25.35
2018-10-12T07:30:12.981Z,25.36
2018-10-12T07:31:12.981Z,25.47
2018-10-12T07:32:12.975Z,25.45
2018-10-12T07:33:12.995Z,25.40
2018-10-12T07:34:13.099Z,25.45
2018-10-12T07:35:12.982Z,25.42
2018-10-12T07:36:12.975Z,25.40
2018-10-12T07:37:12.627Z,25.46
2018-10-12T07:38:13.027Z,25.46
2018-10-12T07:39:13.049Z,25.40
2018-10-12T07:40:12.367Z,25.45
2018-10-12T07:41:13.093Z,25.36
2018-10-12T07:42:12.976Z,25.43
2018-10-12T07:43:12.988Z,25.38
2018-10-12T07:44:12.981Z,25.39
2018-10-12T07:45:13.027Z,25.39
2018-10-12T07:46:13.038Z,25.42
2018-10-12T07:47:12.550Z,25.36
2018-10-12T07:48:13.072Z,25.36
2018-10-12T07:49:12.979Z,25.38
2018-10-12T07:50:12.985Z,25.39
2018-10-12T07:51:12.977Z,25.40
2018-10-12T07:52:13.002Z,25.36
2018-10-12T07:53:12.435Z,25.35
2018-10-12T07:54:13.060Z,25.40
2018-10-12T07:55:12.192Z,25.36
2018-10-12T07:56:12.981Z,25.32
2018-10-12T07:57:14.014Z,25.30
2018-10-12T07:58:13.004Z,25.42
2018-10-12T07:59:13.000Z,25.38
2018-10-12T08:00:12.231Z,25.38
2018-10-12T08:01:12.128Z,25.39
2018-10-12T08:02:13.007Z,25.38
2018-10-12T08:03:12.982Z,25.46
2018-10-12T08:04:12.265Z,25.35
2018-10-12T08:05:12.996Z,25.39
2018-10-12T08:06:12.092Z,25.46
2018-10-12T08:07:12.530Z,25.46
2018-10-12T08:08:12.980Z,25.38
2018-10-12T08:09:12.116Z,25.38
2018-10-12T08:10:12.048Z,25.38
2018-10-12T08:11:12.980Z,25.46
2018-10-12T08:12:12.489Z,25.45
2018-10-12T08:13:13.023Z,25.45
2018-10-12T08:14:13.037Z,25.43
2018-10-12T08:15:12.119Z,25.51
2018-10-12T08:16:12.538Z,25.45
2018-10-12T08:17:12.537Z,25.50
2018-10-12T08:18:11.996Z,25.47
2018-10-12T08:19:12.515Z,25.40
2018-10-12T08:20:12.532Z,25.42
2018-10-12T08:21:12.482Z,25.38
2018-10-12T08:22:12.675Z,25.50
2018-10-12T08:23:12.501Z,25.45
2018-10-12T08:24:12.480Z,25.43
2018-10-12T08:25:12.482Z,25.50
2018-10-12T08:26:12.502Z,25.46
2018-10-12T08:27:12.336Z,25.46
2018-10-12T08:28:12.509Z,25.60
2018-10-12T08:29:12.485Z,25.46
2018-10-12T08:30:12.593Z,25.50
2018-10-12T08:31:12.559Z,25.55
2018-10-12T08:32:12.013Z,25.54
2018-10-12T08:33:11.805Z,25.51
2018-10-12T08:34:12.485Z,25.50
2018-10-12T08:35:11.855Z,25.51
2018-10-12T08:36:12.592Z,25.51
2018-10-12T08:37:12.024Z,25.58
2018-10-12T08:38:12.509Z,25.50
2018-10-12T08:39:12.483Z,25.54
2018-10-12T08:40:12.481Z,25.52
2018-10-12T08:41:12.484Z,25.60
2018-10-12T08:42:12.484Z,25.58
2018-10-12T08:43:12.012Z,25.60
2018-10-12T08:44:12.595Z,25.54
2018-10-12T08:45:12.492Z,25.52
2018-10-12T08:46:12.485Z,25.58
2018-10-12T08:47:12.484Z,25.57
2018-10-12T08:48:12.554Z,25.51
2018-10-12T08:49:12.491Z,25.51
2018-10-12T08:50:12.623Z,25.52
2018-10-12T08:51:12.479Z,25.57
2018-10-12T08:52:11.712Z,25.55
2018-10-12T08:53:12.021Z,25.57
2018-10-12T08:54:12.504Z,25.58
2018-10-12T08:55:11.584Z,25.55
2018-10-12T08:56:11.538Z,25.58
2018-10-12T08:57:11.522Z,25.60
2018-10-12T08:58:12.504Z,25.57
2018-10-12T08:59:12.491Z,25.57
2018-10-12T09:00:12.493Z,25.57
2018-10-12T09:01:12.018Z,25.54
2018-10-12T09:02:11.548Z,25.61
2018-10-12T09:03:12.001Z,25.60
2018-10-12T09:04:12.017Z,25.67
2018-10-12T09:05:12.067Z,25.64
2018-10-12T09:06:12.035Z,25.64
2018-10-12T09:07:11.985Z,25.65
2018-10-12T09:08:12.034Z,25.70
2018-10-12T09:09:12.023Z,25.67
2018-10-12T09:10:11.985Z,25.72
2018-10-12T09:11:11.984Z,25.67
2018-10-12T09:12:11.356Z,25.69
2018-10-12T09:13:11.507Z,25.70
2018-10-12T09:14:12.121Z,25.67
2018-10-12T09:15:12.018Z,25.69
2018-10-12T09:16:12.048Z,25.67
2018-10-12T09:17:11.984Z,25.65
2018-10-12T09:18:11.503Z,25.62
2018-10-12T09:19:11.997Z,25.75
2018-10-12T09:20:11.364Z,25.67
2018-10-12T09:21:12.133Z,25.73
2018-10-12T09:22:11.259Z,25.73
2018-10-12T09:23:12.014Z,25.61
2018-10-12T09:24:11.984Z,25.62
2018-10-12T09:25:11.231Z,25.65
2018-10-12T09:26:11.300Z,25.65
2018-10-12T09:27:11.211Z,25.70
2018-10-12T09:28:11.604Z,25.73
2018-10-12T09:29:12.033Z,25.70
2018-10-12T09:30:11.263Z,25.69
2018-10-12T09:31:11.984Z,25.67
2018-10-12T09:32:12.095Z,25.70
2018-10-12T09:33:12.005Z,25.72
2018-10-12T09:34:11.169Z,25.65
2018-10-12T09:35:11.984Z,25.70
2018-10-12T09:36:11.979Z,25.64
2018-10-12T09:37:12.133Z,25.75
2018-10-12T09:38:12.008Z,25.70
2018-10-12T09:39:11.984Z,25.61
2018-10-12T09:40:12.015Z,25.69
2018-10-12T09:41:11.984Z,25.69
2018-10-12T09:42:11.087Z,25.69
2018-10-12T09:43:11.552Z,25.70
2018-10-12T09:44:12.002Z,25.75
2018-10-12T09:45:11.984Z,25.70
2018-10-12T09:46:11.998Z,25.76
2018-10-12T09:47:10.996Z,25.77
2018-10-12T09:48:11.510Z,25.80
2018-10-12T09:49:11.557Z,25.79
2018-10-12T09:50:11.554Z,25.77
2018-10-12T09:51:11.502Z,25.82
2018-10-12T09:52:11.490Z,25.83
2018-10-12T09:53:11.580Z,25.79
2018-10-12T09:54:11.657Z,25.91
2018-10-12T09:55:11.510Z,25.77
2018-10-12T09:56:10.889Z,25.94
2018-10-12T09:57:10.887Z,25.91
2018-10-12T09:58:11.514Z,25.90
2018-10-12T09:59:11.552Z,25.92
2018-10-12T10:00:11.490Z,25.92
2018-10-12T10:01:11.488Z,25.95
2018-10-12T10:02:11.533Z,25.92
2018-10-12T10:03:11.514Z,25.88
2018-10-12T10:04:11.497Z,25.95
2018-10-12T10:05:11.491Z,25.99
2018-10-12T10:06:10.840Z,25.94
2018-10-12T10:07:10.867Z,26.06
2018-10-12T10:08:11.220Z,26.02
2018-10-12T10:09:11.675Z,26.06
2018-10-12T10:10:11.527Z,26.01
2018-10-12T10:11:10.849Z,26.05
2018-10-12T10:12:10.868Z,26.01
2018-10-12T10:13:11.538Z,26.12
2018-10-12T10:14:11.491Z,26.15
2018-10-12T10:15:10.686Z,26.25
2018-10-12T10:16:11.488Z,26.13
2018-10-12T10:17:11.604Z,26.15
2018-10-12T10:18:11.516Z,26.10
2018-10-12T10:19:11.516Z,26.20
2018-10-12T10:20:11.488Z,26.23
2018-10-12T10:21:11.486Z,26.20
2018-10-12T10:22:11.620Z,26.23
2018-10-12T10:23:11.511Z,26.25
2018-10-12T10:24:10.722Z,26.33
2018-10-12T10:25:15.588Z,26.29
2018-10-12T10:26:11.572Z,26.28
2018-10-12T10:27:12.384Z,26.35
2018-10-12T10:28:11.516Z,26.30
2018-10-12T10:29:11.532Z,26.32
2018-10-12T10:30:10.542Z,26.43
2018-10-12T10:31:11.522Z,26.33
2018-10-12T10:32:10.685Z,26.40
2018-10-12T10:33:11.007Z,26.43
2018-10-12T10:34:11.026Z,26.47
2018-10-12T10:35:10.993Z,26.45
2018-10-12T10:36:11.116Z,26.44
2018-10-12T10:37:11.010Z,26.48
2018-10-12T10:38:11.078Z,26.54
2018-10-12T10:39:11.125Z,26.52
2018-10-12T10:40:11.120Z,26.55
2018-10-12T10:41:11.025Z,26.57
2018-10-12T10:42:11.006Z,26.57
2018-10-12T10:43:11.006Z,26.55
2018-10-12T10:44:11.024Z,26.62
2018-10-12T10:45:11.025Z,26.67
2018-10-12T10:46:11.002Z,26.69
2018-10-12T10:47:10.991Z,26.57
2018-10-12T10:48:10.989Z,26.66
2018-10-12T10:49:11.006Z,26.69
2018-10-12T10:50:10.338Z,26.63
2018-10-12T10:51:10.340Z,26.63
2018-10-12T10:52:11.053Z,26.67
2018-10-12T10:53:11.095Z,26.66
2018-10-12T10:54:11.038Z,26.75
2018-10-12T10:55:11.032Z,26.70
2018-10-12T10:56:10.380Z,26.77
2018-10-12T10:57:11.105Z,26.82
2018-10-12T10:58:10.991Z,26.73
2018-10-12T10:59:10.516Z,26.75
2018-10-12T11:00:13.157Z,26.76
2018-10-12T11:01:11.050Z,26.87
2018-10-12T11:02:11.038Z,26.85
2018-10-12T11:03:10.989Z,26.88
2018-10-12T11:04:11.023Z,26.91
2018-10-12T11:05:11.102Z,26.84
2018-10-12T11:06:11.003Z,26.91
2018-10-12T11:07:11.035Z,26.87
2018-10-12T11:08:11.008Z,27.02
2018-10-12T11:09:10.511Z,26.87
2018-10-12T11:10:11.040Z,26.95
2018-10-12T11:11:10.990Z,26.92
2018-10-12T11:12:11.040Z,26.95
2018-10-12T11:13:10.085Z,26.99
2018-10-12T11:14:11.027Z,26.89
2018-10-12T11:15:11.056Z,27.00
2018-10-12T11:16:10.997Z,26.97
2018-10-12T11:17:10.999Z,26.92
2018-10-12T11:18:11.000Z,27.03
2018-10-12T11:19:11.795Z,27.06
2018-10-12T11:20:10.497Z,27.00
2018-10-12T11:21:10.643Z,27.00
2018-10-12T11:22:10.496Z,27.04
2018-10-12T11:23:09.975Z,26.99
2018-10-12T11:24:10.524Z,27.02
2018-10-12T11:25:10.527Z,27.03
2018-10-12T11:26:10.633Z,27.09
2018-10-12T11:27:10.510Z,27.12
2018-10-12T11:28:09.928Z,27.07
2018-10-12T11:29:10.515Z,27.12
2018-10-12T11:30:10.568Z,27.07
2018-10-12T11:31:09.878Z,27.02
2018-10-12T11:32:10.614Z,27.00
2018-10-12T11:33:09.966Z,27.21
2018-10-12T11:34:10.527Z,27.03
2018-10-12T11:35:09.946Z,27.02
2018-10-12T11:36:10.516Z,27.04
2018-10-12T11:37:10.510Z,27.10
2018-10-12T11:38:10.511Z,27.12
2018-10-12T11:39:10.042Z,27.06
2018-10-12T11:40:10.496Z,27.24
2018-10-12T11:41:10.491Z,27.10
2018-10-12T11:42:10.497Z,27.17
2018-10-12T11:43:09.777Z,27.12
2018-10-12T11:44:10.170Z,27.17
2018-10-12T11:45:09.795Z,27.14
2018-10-12T11:46:10.496Z,27.04
2018-10-12T11:47:10.494Z,27.09
2018-10-12T11:48:10.501Z,27.10
2018-10-12T11:49:10.512Z,27.17
2018-10-12T11:50:09.813Z,27.18
2018-10-12T11:51:09.764Z,27.17
2018-10-12T11:52:09.706Z,27.22
2018-10-12T11:53:10.530Z,27.21
2018-10-12T11:54:10.520Z,27.14
2018-10-12T11:55:09.629Z,27.14
2018-10-12T11:56:10.509Z,27.17
2018-10-12T11:57:10.507Z,27.19
2018-10-12T11:58:10.494Z,27.18
2018-10-12T11:59:10.048Z,27.19
2018-10-12T12:00:10.497Z,27.18
2018-10-12T12:01:10.645Z,27.17
2018-10-12T12:02:10.709Z,27.18
2018-10-12T12:03:10.496Z,27.18
2018-10-12T12:04:10.020Z,27.21
2018-10-12T12:05:10.510Z,27.14
2018-10-12T12:06:10.004Z,27.19
2018-10-12T12:07:10.040Z,27.21
2018-10-12T12:08:10.159Z,27.22
2018-10-12T12:09:10.031Z,27.22
2018-10-12T12:10:10.096Z,27.22
2018-10-12T12:11:10.007Z,27.18
2018-10-12T12:12:09.991Z,27.19
2018-10-12T12:13:09.992Z,27.17
2018-10-12T12:14:10.021Z,27.18
2018-10-12T12:15:09.442Z,27.22
2018-10-12T12:16:09.997Z,27.22
2018-10-12T12:17:09.512Z,27.18
2018-10-12T12:18:09.997Z,27.24
2018-10-12T12:19:10.030Z,27.28
2018-10-12T12:20:10.004Z,27.25
2018-10-12T12:21:10.116Z,27.31
2018-10-12T12:22:10.005Z,27.27
2018-10-12T12:23:09.998Z,27.25
2018-10-12T12:24:10.038Z,27.28
2018-10-12T12:25:09.370Z,27.31
2018-10-12T12:26:10.080Z,27.29
2018-10-12T12:27:10.012Z,27.24
2018-10-12T12:28:09.260Z,27.24
2018-10-12T12:29:10.291Z,27.25
2018-10-12T12:30:10.184Z,27.34
2018-10-12T12:31:10.121Z,27.21
2018-10-12T12:32:10.005Z,27.17
2018-10-12T12:33:10.004Z,27.24
2018-10-12T12:34:10.067Z,27.37
2018-10-12T12:35:09.481Z,27.18
2018-10-12T12:36:10.193Z,27.31
2018-10-12T12:37:10.011Z,27.24
2018-10-12T12:38:10.116Z,27.31
2018-10-12T12:39:11.035Z,27.29
2018-10-12T12:40:10.004Z,27.25
2018-10-12T12:41:10.057Z,27.29
2018-10-12T12:42:10.019Z,27.29
2018-10-12T12:43:09.154Z,27.36
2018-10-12T12:44:10.022Z,27.21
2018-10-12T12:45:10.054Z,27.25
2018-10-12T12:46:09.085Z,27.21
2018-10-12T12:47:10.011Z,27.28
2018-10-12T12:48:10.260Z,27.18
2018-10-12T12:49:10.680Z,27.19
2018-10-12T12:50:09.997Z,27.14
2018-10-12T12:51:10.027Z,27.18
2018-10-12T12:52:09.521Z,27.14
2018-10-12T12:53:09.581Z,27.13
2018-10-12T12:54:09.508Z,27.10
2018-10-12T12:55:09.538Z,27.12
2018-10-12T12:56:09.518Z,27.03